Kelowna Airport
CYLW : now visible

Aeroporto :











RITROVATECI SU...

 
LOGIN :

Iscrizione | Disclaimer

   EN    FR    IT 

 









Sommario :    VFR   VFR Marginale   IFR   IFR Intensivo   IFR Molto Intensivo
Visibilità : 
Base nubi : 
>= 8 km
>= 3000ft
5 / 8 km
1000 / 3000 ft
1500m / 5 km
500 / 1000 ft
800 / 1500m
200 / 500 ft
< 800m
< 200 ft
Simboli :   Temporali  Nebbia  Neve Forte  Precipitazioni Forti  Vento > 20 kt






- Altitudine del aeroporto : 1409 ft
- Codice IATA : YLW


CYLW - Kelowna

ULTIMO METAR :
  • 250840Z AUTO 14007KT 9SM SCT022 03/01 A2998 RMK SLP168

METARs OBSOLETI :
  • 250810Z AUTO 13007KT 9SM BKN020 BKN060 OVC130 03/01 A2998 RMK SLP168
  • 250805Z AUTO 14007KT 9SM SCT020 BKN060 BKN130 03/02 A2999 RMK SLP170
  • 250721Z AUTO 14006KT 9SM SCT020 OVC060 04/02 A2998 RMK SLP168
  • 250714Z AUTO 15007KT 9SM BKN020 OVC060 04/02 A2999 RMK SLP169
  • 250659Z AUTO 17006KT 9SM SCT020 OVC060 02/01 A2998 RMK SLP170
  • 250600Z AUTO 16005KT 9SM BKN020 04/02 A2997 RMK SLP165

TAF TAF CYLW
Valido dal 25 a 07 ore il 25 a 19 ore UTC


250640Z 2507/2519 14006KT P6SM SCT020 BKN060
TEMPO 2507/2515 BKN020 OVC060
PROB30 2507/2515 1SM BR BKN003 OVC020
FM251500 VRB03KT P6SM SCT015 BKN060
TEMPO 2515/2519 5SM -RASN BR OVC015 RMK FCST BASED ON AUTO OBS. NXT FCST BY 251300Z



MetMap, La meteo Aeronautica in un colpo d'occhio ! - Copyright ORBIFLY Dicembre 2007 - Disclaimer

ORBIFLY MET'MAP TEAM :

Programmazione e sviluppo : Alexandra Zaïnal
Concezione : Baudouin d'Aumeries
Aiuto per la programmazione : Marc-Olivier Méhu
Supporto tecnico e logistico : Manuel Goepfert
Aiuto per la traduzione : Arnaldo La Scala

Contatto : metmap@orbifly.com




FONTI E CREDITI :

   NOAA       Earth
Advisory